Time;durP1;ratioP1;P1;durP2;ratioP2;P2;SDS_P1;SDS_P2;PMS_P1;PMS_P2;Temp;Humidity;BMP_temperature;BMP_pressure;BME280_temperature;BME280_humidity;BME280_pressure;Samples;Min_cycle;Max_cycle;Signal;HPM_P1;HPM_P2
2022/08/13 00:01:18;;;;;;;2.83;2.63;;;;;;;;;;5093560;28;20498;-78
2022/08/13 00:03:47;;;;;;;2.53;2.33;;;;;;;;;;5092223;28;20448;-78
2022/08/13 00:06:37;;;;;;;2.20;2.10;;;;;;;;;;5092140;28;20491;-76
2022/08/13 00:09:04;;;;;;;2.20;2.10;;;;;;;;;;5093068;28;20745;-78
2022/08/13 00:14:16;;;;;;;2.80;2.60;;;;;;;;;;5092477;28;20485;-77
2022/08/13 00:16:43;;;;;;;2.80;2.60;;;;;;;;;;5093718;28;20456;-77
2022/08/13 00:19:11;;;;;;;3.10;2.90;;;;;;;;;;5095641;28;20505;-76
2022/08/13 00:21:38;;;;;;;2.57;2.40;;;;;;;;;;5095039;28;20471;-77
2022/08/13 00:24:06;;;;;;;2.70;2.50;;;;;;;;;;5092500;28;20447;-77
2022/08/13 00:26:33;;;;;;;2.40;2.23;;;;;;;;;;5092584;28;20675;-77
2022/08/13 00:29:00;;;;;;;3.03;2.70;;;;;;;;;;5092344;28;20868;-77
2022/08/13 00:31:28;;;;;;;2.67;2.47;;;;;;;;;;5092941;28;20443;-78
2022/08/13 00:33:55;;;;;;;3.00;2.23;;;;;;;;;;5092796;28;20505;-76
2022/08/13 00:36:24;;;;;;;2.17;2.07;;;;;;;;;;5098348;28;20560;-75
2022/08/13 00:38:52;;;;;;;3.13;2.73;;;;;;;;;;5106645;28;20445;-77
2022/08/13 00:44:00;;;;;;;3.10;2.90;;;;;;;;;;5094390;28;20431;-77
2022/08/13 00:46:27;;;;;;;2.63;2.53;;;;;;;;;;5093846;28;20509;-76
2022/08/13 00:48:54;;;;;;;2.83;2.73;;;;;;;;;;5091654;28;20501;-77
2022/08/13 00:51:21;;;;;;;2.70;2.60;;;;;;;;;;5091468;28;20442;-77
2022/08/13 00:53:50;;;;;;;3.50;2.60;;;;;;;;;;5095632;28;21430;-77
2022/08/13 00:56:17;;;;;;;2.60;2.37;;;;;;;;;;5113822;28;20448;-76
2022/08/13 00:58:46;;;;;;;3.23;2.90;;;;;;;;;;5111175;28;20443;-77
2022/08/13 01:01:13;;;;;;;3.93;2.50;;;;;;;;;;5112326;28;20467;-76
2022/08/13 01:03:40;;;;;;;5.03;2.63;;;;;;;;;;5091207;28;20513;-77
2022/08/13 01:06:08;;;;;;;2.20;2.10;;;;;;;;;;5091266;28;20464;-77
2022/08/13 01:08:40;;;;;;;3.27;2.90;;;;;;;;;;5091225;28;20444;-77
2022/08/13 01:11:11;;;;;;;3.17;2.97;;;;;;;;;;5077346;28;20536;-76
2022/08/13 01:13:39;;;;;;;2.70;2.50;;;;;;;;;;5070435;28;20436;-77
2022/08/13 01:16:07;;;;;;;2.73;2.53;;;;;;;;;;5070350;28;20865;-77
2022/08/13 01:18:36;;;;;;;2.77;2.57;;;;;;;;;;5070181;28;21058;-78
2022/08/13 01:21:08;;;;;;;2.60;2.43;;;;;;;;;;5070573;28;20543;-76
2022/08/13 01:23:37;;;;;;;3.20;2.90;;;;;;;;;;5069969;28;20510;-77
2022/08/13 01:26:04;;;;;;;3.50;2.80;;;;;;;;;;5070148;28;20563;-77
2022/08/13 01:28:32;;;;;;;2.60;2.50;;;;;;;;;;5070267;28;20448;-77
2022/08/13 01:31:06;;;;;;;3.53;2.83;;;;;;;;;;5069950;28;20452;-77
2022/08/13 01:33:35;;;;;;;3.10;2.70;;;;;;;;;;5070031;28;20440;-77
2022/08/13 01:36:03;;;;;;;2.93;2.70;;;;;;;;;;5070426;28;20464;-77
2022/08/13 01:38:30;;;;;;;2.90;2.70;;;;;;;;;;5069905;28;21309;-76
2022/08/13 01:40:59;;;;;;;3.00;2.80;;;;;;;;;;5070618;28;20547;-77
2022/08/13 01:43:29;;;;;;;3.00;2.80;;;;;;;;;;5069895;28;20507;-78
2022/08/13 01:45:57;;;;;;;2.80;2.60;;;;;;;;;;5070371;28;20988;-77
2022/08/13 01:51:09;;;;;;;2.83;2.67;;;;;;;;;;5069997;28;20419;-77
2022/08/13 01:53:37;;;;;;;3.17;2.80;;;;;;;;;;5069498;28;20487;-77
2022/08/13 01:56:06;;;;;;;3.17;2.97;;;;;;;;;;5069713;28;20476;-77
2022/08/13 01:58:34;;;;;;;2.47;2.37;;;;;;;;;;5070015;28;20495;-77
2022/08/13 02:01:02;;;;;;;2.70;2.60;;;;;;;;;;5070205;28;20924;-77
2022/08/13 02:03:30;;;;;;;2.67;2.47;;;;;;;;;;5069861;28;20529;-77
2022/08/13 02:05:57;;;;;;;2.70;2.60;;;;;;;;;;5070220;28;20471;-77
2022/08/13 02:08:26;;;;;;;2.90;2.70;;;;;;;;;;5070055;28;20460;-76
2022/08/13 02:10:54;;;;;;;4.07;2.73;;;;;;;;;;5081808;28;20532;-77
2022/08/13 02:13:27;;;;;;;2.80;2.60;;;;;;;;;;5089799;28;20825;-77
2022/08/13 02:15:54;;;;;;;3.30;3.00;;;;;;;;;;5090229;28;20472;-77
2022/08/13 02:18:22;;;;;;;3.30;3.10;;;;;;;;;;5090009;28;20497;-76
2022/08/13 02:20:50;;;;;;;3.03;2.83;;;;;;;;;;5093334;28;20820;-77
2022/08/13 02:23:19;;;;;;;2.80;2.60;;;;;;;;;;5093706;28;20537;-77
2022/08/13 02:25:46;;;;;;;2.83;2.63;;;;;;;;;;5093896;28;20464;-77
2022/08/13 02:28:14;;;;;;;2.80;2.70;;;;;;;;;;5093853;28;20444;-77
2022/08/13 02:30:42;;;;;;;3.00;2.80;;;;;;;;;;5093753;28;20447;-76
2022/08/13 02:33:09;;;;;;;2.80;2.60;;;;;;;;;;5093367;28;20435;-77
2022/08/13 02:35:37;;;;;;;2.87;2.67;;;;;;;;;;5093332;28;20455;-76
2022/08/13 02:38:04;;;;;;;2.40;2.30;;;;;;;;;;5093611;28;20512;-77
2022/08/13 02:43:17;;;;;;;3.50;2.77;;;;;;;;;;5093386;28;20462;-76
2022/08/13 02:45:45;;;;;;;2.57;2.37;;;;;;;;;;5093465;28;20452;-77
2022/08/13 02:48:13;;;;;;;3.50;2.77;;;;;;;;;;5093491;28;20455;-76
2022/08/13 02:50:43;;;;;;;2.53;2.40;;;;;;;;;;5093525;28;20439;-76
2022/08/13 02:53:13;;;;;;;2.90;2.70;;;;;;;;;;5093426;28;20454;-76
2022/08/13 02:55:41;;;;;;;3.67;3.37;;;;;;;;;;5093487;28;20517;-78
2022/08/13 02:58:08;;;;;;;2.97;2.77;;;;;;;;;;5093483;28;20469;-77
2022/08/13 03:00:41;;;;;;;3.10;2.90;;;;;;;;;;5093146;28;20799;-77
2022/08/13 03:03:10;;;;;;;3.23;2.77;;;;;;;;;;5093957;28;20507;-77
2022/08/13 03:05:37;;;;;;;2.50;2.40;;;;;;;;;;5094201;28;20471;-76
2022/08/13 03:08:04;;;;;;;2.90;2.70;;;;;;;;;;5093702;28;20972;-76
2022/08/13 03:10:31;;;;;;;3.30;3.10;;;;;;;;;;5084621;28;20445;-77
2022/08/13 03:13:02;;;;;;;4.23;2.67;;;;;;;;;;5072476;28;20541;-77
2022/08/13 03:15:30;;;;;;;2.60;2.40;;;;;;;;;;5072839;28;20498;-76
2022/08/13 03:17:57;;;;;;;2.80;2.70;;;;;;;;;;5072972;28;20492;-76
2022/08/13 03:20:25;;;;;;;2.70;2.60;;;;;;;;;;5072746;28;20498;-78
2022/08/13 03:22:53;;;;;;;2.67;2.47;;;;;;;;;;5072945;28;20476;-76
2022/08/13 03:25:21;;;;;;;2.80;2.60;;;;;;;;;;5073264;28;20465;-77
2022/08/13 03:27:49;;;;;;;3.30;3.10;;;;;;;;;;5073267;28;20536;-77
2022/08/13 03:30:16;;;;;;;3.17;2.97;;;;;;;;;;5072473;28;20471;-76
2022/08/13 03:32:45;;;;;;;3.53;2.63;;;;;;;;;;5072365;28;20853;-77
2022/08/13 03:35:12;;;;;;;3.00;2.80;;;;;;;;;;5072533;28;21116;-77
2022/08/13 03:37:43;;;;;;;3.00;2.80;;;;;;;;;;5072777;28;20933;-76
2022/08/13 03:40:11;;;;;;;2.50;2.37;;;;;;;;;;5072135;28;20440;-76
2022/08/13 03:42:39;;;;;;;2.50;2.40;;;;;;;;;;5072295;28;20480;-76
2022/08/13 03:45:07;;;;;;;2.60;2.50;;;;;;;;;;5072045;28;20864;-77
2022/08/13 03:47:34;;;;;;;3.30;3.00;;;;;;;;;;5072251;28;20474;-77
2022/08/13 03:50:03;;;;;;;3.60;3.40;;;;;;;;;;5072203;28;20474;-77
2022/08/13 03:52:33;;;;;;;3.70;3.40;;;;;;;;;;5072324;28;20507;-76
2022/08/13 03:55:02;;;;;;;3.83;3.50;;;;;;;;;;5072246;28;20464;-77
2022/08/13 03:57:29;;;;;;;3.67;3.43;;;;;;;;;;5072248;28;20531;-76
2022/08/13 03:59:58;;;;;;;3.17;2.97;;;;;;;;;;5073920;28;20490;-76
2022/08/13 04:02:25;;;;;;;4.83;2.97;;;;;;;;;;5080710;28;20562;-76
2022/08/13 04:04:52;;;;;;;4.40;4.10;;;;;;;;;;5075307;28;20468;-76
2022/08/13 04:07:20;;;;;;;3.53;3.20;;;;;;;;;;5071863;28;20452;-75
2022/08/13 04:09:48;;;;;;;3.27;3.07;;;;;;;;;;5074273;28;20527;-76
2022/08/13 04:12:16;;;;;;;3.10;2.90;;;;;;;;;;5082121;28;20448;-76
2022/08/13 04:14:44;;;;;;;3.00;2.80;;;;;;;;;;5081856;28;20468;-77
2022/08/13 04:17:13;;;;;;;3.80;2.57;;;;;;;;;;5091550;28;20443;-76
2022/08/13 04:19:40;;;;;;;3.50;3.30;;;;;;;;;;5094488;28;20448;-77
2022/08/13 04:22:10;;;;;;;3.33;2.90;;;;;;;;;;5093655;28;20440;-76
2022/08/13 04:24:37;;;;;;;3.43;2.63;;;;;;;;;;5093717;28;20486;-76
2022/08/13 04:27:05;;;;;;;2.93;2.80;;;;;;;;;;5094212;28;20607;-77
2022/08/13 04:29:33;;;;;;;3.57;3.27;;;;;;;;;;5093938;28;20537;-76
2022/08/13 04:32:00;;;;;;;2.97;2.77;;;;;;;;;;5092410;28;20444;-76
2022/08/13 04:34:29;;;;;;;3.20;2.97;;;;;;;;;;5091141;28;20530;-77
2022/08/13 04:36:56;;;;;;;3.27;3.00;;;;;;;;;;5091421;28;20428;-76
2022/08/13 04:39:24;;;;;;;2.97;2.67;;;;;;;;;;5091558;28;20444;-76
2022/08/13 04:41:51;;;;;;;3.27;3.00;;;;;;;;;;5091022;28;20969;-77
2022/08/13 04:44:18;;;;;;;5.13;3.80;;;;;;;;;;5091098;28;20501;-77
2022/08/13 04:46:46;;;;;;;3.83;3.63;;;;;;;;;;5091339;28;20832;-77
2022/08/13 04:49:13;;;;;;;3.40;3.20;;;;;;;;;;5092562;28;20450;-75
2022/08/13 04:51:40;;;;;;;3.47;3.17;;;;;;;;;;5091169;28;20927;-77
2022/08/13 04:54:07;;;;;;;3.43;3.23;;;;;;;;;;5091292;28;20849;-76
2022/08/13 04:56:35;;;;;;;3.27;3.00;;;;;;;;;;5091574;28;20581;-76
2022/08/13 04:59:03;;;;;;;6.23;3.17;;;;;;;;;;5092974;28;20452;-75
2022/08/13 05:01:30;;;;;;;4.30;3.33;;;;;;;;;;5091671;28;20447;-76
2022/08/13 05:03:59;;;;;;;4.83;3.20;;;;;;;;;;5090778;28;20510;-76
2022/08/13 05:06:27;;;;;;;5.40;3.07;;;;;;;;;;5090947;28;20471;-76
2022/08/13 05:08:55;;;;;;;3.73;3.53;;;;;;;;;;5090924;28;20973;-76
2022/08/13 05:11:22;;;;;;;6.53;3.63;;;;;;;;;;5090758;28;20448;-76
2022/08/13 05:13:49;;;;;;;3.53;3.23;;;;;;;;;;5090438;28;20447;-77
2022/08/13 05:16:16;;;;;;;3.27;2.87;;;;;;;;;;5091210;28;20471;-76
2022/08/13 05:18:45;;;;;;;4.77;3.73;;;;;;;;;;5091693;28;20913;-75
2022/08/13 05:21:14;;;;;;;3.53;3.30;;;;;;;;;;5091760;28;20443;-75
2022/08/13 05:23:43;;;;;;;3.23;3.03;;;;;;;;;;5092370;28;20479;-76
2022/08/13 05:26:11;;;;;;;3.60;3.30;;;;;;;;;;5091795;28;20470;-77
2022/08/13 05:28:38;;;;;;;4.30;3.50;;;;;;;;;;5090999;28;20555;-77
2022/08/13 05:31:06;;;;;;;5.00;3.63;;;;;;;;;;5091055;28;20452;-76
2022/08/13 05:33:35;;;;;;;3.87;3.47;;;;;;;;;;5091100;28;20474;-76
2022/08/13 05:36:04;;;;;;;5.90;3.30;;;;;;;;;;5090710;28;20897;-77
2022/08/13 05:38:33;;;;;;;3.50;3.20;;;;;;;;;;5091365;28;20534;-76
2022/08/13 05:41:01;;;;;;;3.80;3.60;;;;;;;;;;5093052;28;20530;-76
2022/08/13 05:43:29;;;;;;;4.90;3.17;;;;;;;;;;5092282;28;20961;-76
2022/08/13 05:45:58;;;;;;;3.40;2.93;;;;;;;;;;5093304;28;20518;-75
2022/08/13 05:48:25;;;;;;;3.43;3.13;;;;;;;;;;5093962;28;20932;-76
2022/08/13 05:50:52;;;;;;;3.53;3.30;;;;;;;;;;5094181;28;20440;-77
2022/08/13 05:53:19;;;;;;;3.00;2.83;;;;;;;;;;5104826;28;20421;-76
2022/08/13 05:55:48;;;;;;;3.30;3.10;;;;;;;;;;5108350;28;20478;-76
2022/08/13 05:58:16;;;;;;;3.10;2.90;;;;;;;;;;5106656;28;20447;-77
2022/08/13 06:03:28;;;;;;;3.30;3.00;;;;;;;;;;5096222;28;20474;-77
2022/08/13 06:05:56;;;;;;;4.33;3.10;;;;;;;;;;5094791;28;20459;-76
2022/08/13 06:08:28;;;;;;;2.73;2.63;;;;;;;;;;5094483;28;20455;-77
2022/08/13 06:10:56;;;;;;;3.73;2.90;;;;;;;;;;5084049;28;20452;-77
2022/08/13 06:13:24;;;;;;;3.40;3.20;;;;;;;;;;5074684;28;20601;-76
2022/08/13 06:15:58;;;;;;;3.33;3.17;;;;;;;;;;5074305;28;20448;-76
2022/08/13 06:18:26;;;;;;;3.40;3.10;;;;;;;;;;5073932;28;21151;-77
2022/08/13 06:20:54;;;;;;;3.40;3.20;;;;;;;;;;5073657;28;20510;-77
2022/08/13 06:23:22;;;;;;;3.50;3.20;;;;;;;;;;5073765;28;20457;-77
2022/08/13 06:25:51;;;;;;;3.40;3.03;;;;;;;;;;5073852;28;20854;-76
2022/08/13 06:28:20;;;;;;;3.27;3.10;;;;;;;;;;5073904;28;20440;-77
2022/08/13 06:30:49;;;;;;;3.80;3.13;;;;;;;;;;5073906;28;20440;-76
2022/08/13 06:33:17;;;;;;;4.43;3.53;;;;;;;;;;5075159;28;20472;-77
2022/08/13 06:35:45;;;;;;;3.70;3.50;;;;;;;;;;5075483;28;20483;-77
2022/08/13 06:38:12;;;;;;;4.13;3.17;;;;;;;;;;5073580;28;20810;-77
2022/08/13 06:40:42;;;;;;;3.47;3.27;;;;;;;;;;5073644;28;20534;-75
2022/08/13 06:43:09;;;;;;;3.93;3.50;;;;;;;;;;5073714;28;20823;-77
2022/08/13 06:45:42;;;;;;;3.60;3.40;;;;;;;;;;5073891;28;20492;-77
2022/08/13 06:48:10;;;;;;;3.80;3.50;;;;;;;;;;5074545;28;20448;-77
2022/08/13 06:50:37;;;;;;;3.90;3.60;;;;;;;;;;5073877;28;20572;-77
2022/08/13 06:53:05;;;;;;;3.47;3.17;;;;;;;;;;5073416;28;20502;-77
2022/08/13 06:55:36;;;;;;;3.80;3.50;;;;;;;;;;5072859;28;20893;-76
2022/08/13 06:58:03;;;;;;;3.70;3.50;;;;;;;;;;5072884;28;20444;-76
2022/08/13 07:00:31;;;;;;;3.20;3.00;;;;;;;;;;5073156;28;20471;-77
2022/08/13 07:03:05;;;;;;;5.33;3.80;;;;;;;;;;5074186;28;20960;-77
2022/08/13 07:05:33;;;;;;;3.40;3.20;;;;;;;;;;5072443;28;20488;-76
2022/08/13 07:08:04;;;;;;;4.17;3.87;;;;;;;;;;5074355;28;20452;-77
2022/08/13 07:10:32;;;;;;;3.23;3.03;;;;;;;;;;5081799;28;21017;-77
2022/08/13 07:13:02;;;;;;;3.67;3.47;;;;;;;;;;5093854;28;20983;-76
2022/08/13 07:15:31;;;;;;;3.53;3.17;;;;;;;;;;5093325;28;20464;-77
2022/08/13 07:18:00;;;;;;;3.03;2.93;;;;;;;;;;5095481;28;20447;-78
2022/08/13 07:20:29;;;;;;;3.53;3.33;;;;;;;;;;5096338;28;20466;-78
2022/08/13 07:22:58;;;;;;;4.10;3.80;;;;;;;;;;5094385;28;20486;-79
2022/08/13 07:25:30;;;;;;;3.27;3.07;;;;;;;;;;5093410;28;20494;-78
2022/08/13 07:27:59;;;;;;;3.03;2.83;;;;;;;;;;5096751;28;20819;-79
2022/08/13 07:30:27;;;;;;;3.60;3.00;;;;;;;;;;5094851;28;20440;-77
2022/08/13 07:33:05;;;;;;;3.37;3.17;;;;;;;;;;5095646;28;20443;-78
2022/08/13 07:35:58;;;;;;;3.63;3.43;;;;;;;;;;5095555;28;20808;-77
2022/08/13 07:38:31;;;;;;;3.00;2.90;;;;;;;;;;5053033;28;20477;-76
2022/08/13 07:41:12;;;;;;;3.20;3.10;;;;;;;;;;5053916;28;20461;-77
2022/08/13 07:43:41;;;;;;;3.50;3.27;;;;;;;;;;5095052;28;20603;-77
2022/08/13 07:46:10;;;;;;;3.70;3.33;;;;;;;;;;5093472;28;20468;-77
2022/08/13 07:48:37;;;;;;;3.50;3.30;;;;;;;;;;5092303;28;20443;-77
2022/08/13 07:51:05;;;;;;;3.40;3.10;;;;;;;;;;5092341;28;21012;-76
2022/08/13 07:53:35;;;;;;;4.07;3.47;;;;;;;;;;5091906;28;20444;-77
2022/08/13 07:56:03;;;;;;;3.37;3.27;;;;;;;;;;5092430;28;20464;-77
2022/08/13 07:58:31;;;;;;;3.40;3.10;;;;;;;;;;5092040;28;20450;-76
2022/08/13 08:00:59;;;;;;;3.50;3.30;;;;;;;;;;5092142;28;20974;-77
2022/08/13 08:03:28;;;;;;;3.47;3.27;;;;;;;;;;5091840;28;20538;-77
2022/08/13 08:05:56;;;;;;;3.90;3.40;;;;;;;;;;5091862;28;20487;-77
2022/08/13 08:08:24;;;;;;;3.30;3.00;;;;;;;;;;5091559;28;20509;-78
2022/08/13 08:10:54;;;;;;;3.57;3.30;;;;;;;;;;5080761;28;20452;-77
2022/08/13 08:13:20;;;;;;;3.10;2.90;;;;;;;;;;5071378;28;20936;-77
2022/08/13 08:15:48;;;;;;;3.13;3.03;;;;;;;;;;5071902;28;20551;-77
2022/08/13 08:18:15;;;;;;;3.40;3.10;;;;;;;;;;5071024;28;20934;-77
2022/08/13 08:20:42;;;;;;;3.63;3.33;;;;;;;;;;5071622;28;20498;-77
2022/08/13 08:23:11;;;;;;;3.50;2.93;;;;;;;;;;5071537;28;20448;-77
2022/08/13 08:25:38;;;;;;;3.43;3.20;;;;;;;;;;5071158;28;20538;-76
2022/08/13 08:28:09;;;;;;;5.10;3.20;;;;;;;;;;5071156;28;20531;-77
2022/08/13 08:30:37;;;;;;;3.60;3.30;;;;;;;;;;5071761;28;20445;-78
2022/08/13 08:33:04;;;;;;;3.70;3.40;;;;;;;;;;5071153;28;20520;-79
2022/08/13 08:35:33;;;;;;;3.10;2.90;;;;;;;;;;5071528;28;20468;-77
2022/08/13 08:43:35;;;;;;;2.70;2.60;;;;;;;;;;5073696;28;20471;-78
2022/08/13 08:46:05;;;;;;;3.50;3.20;;;;;;;;;;5071099;28;20499;-77
2022/08/13 08:48:34;;;;;;;3.50;3.30;;;;;;;;;;5071388;28;20456;-77
2022/08/13 08:51:01;;;;;;;3.97;3.20;;;;;;;;;;5071590;28;20444;-77
2022/08/13 08:53:29;;;;;;;3.03;2.93;;;;;;;;;;5071460;28;20506;-77
2022/08/13 08:55:56;;;;;;;3.43;3.23;;;;;;;;;;5071658;28;20460;-79
2022/08/13 08:58:24;;;;;;;2.90;2.70;;;;;;;;;;5071363;28;20448;-77
2022/08/13 09:00:56;;;;;;;3.47;3.27;;;;;;;;;;5071348;28;20448;-78
2022/08/13 09:03:27;;;;;;;2.80;2.60;;;;;;;;;;5070538;28;21033;-77
2022/08/13 09:05:55;;;;;;;3.00;2.90;;;;;;;;;;5071282;28;20488;-76
2022/08/13 09:08:24;;;;;;;3.20;2.90;;;;;;;;;;5071312;28;20452;-77
2022/08/13 09:10:52;;;;;;;3.70;2.87;;;;;;;;;;5082204;28;20535;-76
2022/08/13 09:13:22;;;;;;;3.20;3.00;;;;;;;;;;5085685;28;20459;-78
2022/08/13 09:15:50;;;;;;;3.00;2.80;;;;;;;;;;5083418;28;20478;-77
2022/08/13 09:18:21;;;;;;;4.60;3.20;;;;;;;;;;5088279;28;20534;-77
2022/08/13 09:20:48;;;;;;;2.60;2.50;;;;;;;;;;5090659;28;20791;-77
2022/08/13 09:23:16;;;;;;;2.70;2.50;;;;;;;;;;5080879;28;20428;-79
2022/08/13 09:25:48;;;;;;;4.23;3.03;;;;;;;;;;5086950;28;20481;-77
2022/08/13 09:28:18;;;;;;;2.67;2.57;;;;;;;;;;5083463;28;20449;-79
2022/08/13 09:30:46;;;;;;;2.50;2.40;;;;;;;;;;5071087;28;20495;-77
2022/08/13 09:33:13;;;;;;;3.00;2.80;;;;;;;;;;5071523;28;20444;-77
2022/08/13 09:35:43;;;;;;;2.67;2.47;;;;;;;;;;5071812;28;20468;-78
2022/08/13 09:38:10;;;;;;;2.83;2.63;;;;;;;;;;5072974;28;20509;-78
2022/08/13 09:40:39;;;;;;;4.00;2.90;;;;;;;;;;5080301;28;20846;-77
2022/08/13 09:43:09;;;;;;;2.70;2.50;;;;;;;;;;5081744;28;20440;-78
2022/08/13 09:45:39;;;;;;;2.90;2.70;;;;;;;;;;5071717;28;20489;-78
2022/08/13 09:48:07;;;;;;;2.30;2.10;;;;;;;;;;5071714;28;20441;-78
2022/08/13 09:50:34;;;;;;;3.40;2.17;;;;;;;;;;5071403;28;20531;-78
2022/08/13 09:53:03;;;;;;;2.43;2.33;;;;;;;;;;5070833;28;20869;-77
2022/08/13 09:55:31;;;;;;;3.33;2.53;;;;;;;;;;5070646;28;20464;-78
2022/08/13 09:57:59;;;;;;;2.27;2.17;;;;;;;;;;5071348;28;20440;-78
2022/08/13 10:00:27;;;;;;;2.93;2.33;;;;;;;;;;5071002;28;20452;-78
2022/08/13 10:02:56;;;;;;;2.50;2.37;;;;;;;;;;5070950;28;20441;-78
2022/08/13 10:05:25;;;;;;;2.07;1.97;;;;;;;;;;5070894;28;20567;-77
2022/08/13 10:07:52;;;;;;;2.83;2.63;;;;;;;;;;5070422;28;20456;-78
2022/08/13 10:10:22;;;;;;;2.30;2.20;;;;;;;;;;5077247;28;20431;-77
2022/08/13 10:12:49;;;;;;;2.47;2.37;;;;;;;;;;5084118;28;20449;-78
2022/08/13 10:15:16;;;;;;;2.53;2.43;;;;;;;;;;5090194;28;20455;-78
2022/08/13 10:17:48;;;;;;;2.60;2.40;;;;;;;;;;5091408;28;20467;-78
2022/08/13 10:20:15;;;;;;;2.30;2.20;;;;;;;;;;5091533;28;20436;-79
2022/08/13 10:22:46;;;;;;;3.37;2.37;;;;;;;;;;5090657;28;20771;-78
2022/08/13 10:25:16;;;;;;;2.60;2.40;;;;;;;;;;5095302;28;20547;-79
2022/08/13 10:28:00;;;;;;;2.47;2.20;;;;;;;;;;5093753;28;20849;-78
2022/08/13 10:30:29;;;;;;;3.00;2.70;;;;;;;;;;5092096;28;20439;-78
2022/08/13 10:32:56;;;;;;;2.63;2.43;;;;;;;;;;5092800;28;20475;-79
2022/08/13 10:35:34;;;;;;;2.30;2.20;;;;;;;;;;5093064;28;20884;-77
2022/08/13 10:38:08;;;;;;;3.37;2.20;;;;;;;;;;5093386;28;20466;-78
2022/08/13 10:40:46;;;;;;;2.53;2.33;;;;;;;;;;5092853;28;20448;-78
2022/08/13 10:43:25;;;;;;;3.07;2.00;;;;;;;;;;5095650;28;20447;-78
2022/08/13 10:45:56;;;;;;;2.13;2.03;;;;;;;;;;5095632;28;20483;-77
2022/08/13 10:48:25;;;;;;;2.30;2.20;;;;;;;;;;5094940;28;20416;-77
2022/08/13 10:50:53;;;;;;;2.17;2.07;;;;;;;;;;5094710;28;20517;-78
2022/08/13 10:56:01;;;;;;;2.03;1.93;;;;;;;;;;5094656;28;20447;-78
2022/08/13 10:58:43;;;;;;;2.00;1.90;;;;;;;;;;5095955;28;20439;-77
2022/08/13 11:01:11;;;;;;;3.80;2.37;;;;;;;;;;5094298;28;20497;-77
2022/08/13 11:03:39;;;;;;;2.20;2.00;;;;;;;;;;5094740;28;20448;-77
2022/08/13 11:06:09;;;;;;;1.90;1.80;;;;;;;;;;5102679;28;20479;-77
2022/08/13 11:08:37;;;;;;;1.83;1.73;;;;;;;;;;5100630;28;20439;-76
2022/08/13 11:11:04;;;;;;;2.10;1.97;;;;;;;;;;5098098;28;20482;-78
2022/08/13 11:13:32;;;;;;;4.10;2.03;;;;;;;;;;5093157;28;20934;-77
2022/08/13 11:15:59;;;;;;;2.80;1.70;;;;;;;;;;5091986;28;20464;-78
2022/08/13 11:18:28;;;;;;;2.50;2.30;;;;;;;;;;5086427;28;20508;-78
2022/08/13 11:21:07;;;;;;;1.77;1.67;;;;;;;;;;5085795;28;20453;-78
2022/08/13 11:23:37;;;;;;;1.90;1.80;;;;;;;;;;5081569;28;20445;-78
2022/08/13 11:26:12;;;;;;;2.63;1.90;;;;;;;;;;5084659;28;20487;-78
2022/08/13 11:28:39;;;;;;;2.20;2.00;;;;;;;;;;5080983;28;20441;-77
2022/08/13 11:31:06;;;;;;;2.57;1.80;;;;;;;;;;5084103;28;20858;-78
2022/08/13 11:33:34;;;;;;;2.27;2.07;;;;;;;;;;5086839;28;20493;-77
2022/08/13 11:36:01;;;;;;;2.07;1.83;;;;;;;;;;5085008;28;20469;-78
2022/08/13 11:38:28;;;;;;;4.53;2.00;;;;;;;;;;5081233;28;20995;-76
2022/08/13 11:40:58;;;;;;;3.67;2.47;;;;;;;;;;5083715;28;20432;-77
2022/08/13 11:43:25;;;;;;;3.10;2.10;;;;;;;;;;5084991;28;20497;-76
2022/08/13 11:45:52;;;;;;;2.50;2.30;;;;;;;;;;5092749;28;20488;-78
2022/08/13 11:48:20;;;;;;;1.90;1.80;;;;;;;;;;5082306;28;20445;-77
2022/08/13 11:50:49;;;;;;;2.13;1.93;;;;;;;;;;5083679;28;21006;-77
2022/08/13 11:53:16;;;;;;;3.73;2.13;;;;;;;;;;5084719;28;20485;-77
2022/08/13 11:55:43;;;;;;;2.07;1.73;;;;;;;;;;5091469;28;20521;-78
2022/08/13 11:58:10;;;;;;;2.30;1.90;;;;;;;;;;5091736;28;20444;-76
2022/08/13 12:00:38;;;;;;;4.73;4.33;;;;;;;;;;5091549;28;20479;-78
2022/08/13 12:03:06;;;;;;;2.07;1.97;;;;;;;;;;5091370;28;20460;-77
2022/08/13 12:05:33;;;;;;;3.03;1.40;;;;;;;;;;5073435;28;20484;-78
2022/08/13 12:08:01;;;;;;;1.90;1.80;;;;;;;;;;5072001;28;20506;-78
2022/08/13 12:10:32;;;;;;;2.00;1.90;;;;;;;;;;5071900;28;20440;-77
2022/08/13 12:13:00;;;;;;;1.90;1.80;;;;;;;;;;5072435;28;20844;-77
2022/08/13 12:15:28;;;;;;;2.10;2.00;;;;;;;;;;5071554;28;20506;-78
2022/08/13 12:20:59;;;;;;;2.23;1.77;;;;;;;;;;5068072;28;20447;-79
2022/08/13 12:23:47;;;;;;;2.20;1.93;;;;;;;;;;5093891;28;20448;-79
2022/08/13 12:26:16;;;;;;;1.80;1.70;;;;;;;;;;5094963;28;20500;-79
2022/08/13 12:28:43;;;;;;;2.10;1.83;;;;;;;;;;5093932;28;20493;-78
2022/08/13 12:31:10;;;;;;;2.17;2.00;;;;;;;;;;5091553;28;20443;-78
2022/08/13 12:33:38;;;;;;;1.93;1.80;;;;;;;;;;5090555;28;20573;-78
2022/08/13 12:36:06;;;;;;;1.60;1.50;;;;;;;;;;5090797;28;20463;-77
2022/08/13 12:38:33;;;;;;;2.30;1.90;;;;;;;;;;5090318;28;20447;-77
2022/08/13 12:41:01;;;;;;;2.13;2.03;;;;;;;;;;5090750;28;20443;-78
2022/08/13 12:43:29;;;;;;;1.83;1.73;;;;;;;;;;5090783;28;20493;-77
2022/08/13 12:45:57;;;;;;;3.70;2.20;;;;;;;;;;5092091;28;20532;-77
2022/08/13 12:48:29;;;;;;;3.53;2.00;;;;;;;;;;5095949;28;20451;-78
2022/08/13 12:50:56;;;;;;;3.13;1.70;;;;;;;;;;5093911;28;20457;-77
2022/08/13 12:53:23;;;;;;;1.90;1.80;;;;;;;;;;5090652;28;20447;-77
2022/08/13 12:55:50;;;;;;;1.90;1.80;;;;;;;;;;5090430;28;20460;-77
2022/08/13 12:58:18;;;;;;;4.73;1.63;;;;;;;;;;5090274;28;20477;-78
2022/08/13 13:00:47;;;;;;;1.70;1.60;;;;;;;;;;5090606;28;20439;-77
2022/08/13 13:03:14;;;;;;;1.63;1.63;;;;;;;;;;5094463;28;20489;-78
2022/08/13 13:05:42;;;;;;;2.03;1.93;;;;;;;;;;5095253;28;21002;-77
2022/08/13 13:08:16;;;;;;;2.50;2.40;;;;;;;;;;5095503;28;20459;-77
2022/08/13 13:10:44;;;;;;;2.00;1.77;;;;;;;;;;5096332;28;20487;-78
2022/08/13 13:13:12;;;;;;;2.00;1.90;;;;;;;;;;5101184;28;20505;-79
2022/08/13 13:15:39;;;;;;;2.40;1.60;;;;;;;;;;5098025;28;20495;-79
2022/08/13 13:18:11;;;;;;;1.93;1.83;;;;;;;;;;5093086;28;20452;-79
2022/08/13 13:20:41;;;;;;;1.63;1.50;;;;;;;;;;5091173;28;20870;-80
2022/08/13 13:23:09;;;;;;;1.80;1.70;;;;;;;;;;5090969;28;20452;-79
2022/08/13 13:25:36;;;;;;;1.73;1.63;;;;;;;;;;5090940;28;20470;-79
2022/08/13 13:28:07;;;;;;;2.57;1.73;;;;;;;;;;5091267;28;20851;-79
2022/08/13 13:30:34;;;;;;;1.83;1.73;;;;;;;;;;5092293;28;20618;-79
2022/08/13 13:33:02;;;;;;;1.80;1.70;;;;;;;;;;5090840;28;20428;-79
2022/08/13 13:35:32;;;;;;;1.60;1.50;;;;;;;;;;5084710;28;20956;-79
2022/08/13 13:37:59;;;;;;;1.83;1.70;;;;;;;;;;5085802;28;20607;-79
2022/08/13 13:40:26;;;;;;;1.73;1.63;;;;;;;;;;5090839;28;20477;-79
2022/08/13 13:42:53;;;;;;;1.50;1.50;;;;;;;;;;5090769;28;20516;-79
2022/08/13 13:45:20;;;;;;;2.10;1.57;;;;;;;;;;5090147;28;20513;-77
2022/08/13 13:47:47;;;;;;;1.90;1.80;;;;;;;;;;5089421;28;20741;-78
2022/08/13 13:50:14;;;;;;;1.63;1.53;;;;;;;;;;5089713;28;20455;-77
2022/08/13 13:52:43;;;;;;;1.70;1.60;;;;;;;;;;5089130;28;20451;-76
2022/08/13 13:55:10;;;;;;;1.60;1.60;;;;;;;;;;5089570;28;20524;-78
2022/08/13 13:57:40;;;;;;;1.73;1.63;;;;;;;;;;5089849;28;20435;-77
2022/08/13 14:00:08;;;;;;;1.87;1.77;;;;;;;;;;5089769;28;20523;-77
2022/08/13 14:02:35;;;;;;;1.77;1.67;;;;;;;;;;5089645;28;20535;-77
2022/08/13 14:05:02;;;;;;;1.67;1.57;;;;;;;;;;5089614;28;20464;-77
2022/08/13 14:07:29;;;;;;;3.13;1.83;;;;;;;;;;5088990;28;21006;-78
2022/08/13 14:09:58;;;;;;;1.83;1.73;;;;;;;;;;5089273;28;21010;-76
2022/08/13 14:12:25;;;;;;;2.63;1.60;;;;;;;;;;5089300;28;20505;-76
2022/08/13 14:14:52;;;;;;;2.13;1.30;;;;;;;;;;5089763;28;20514;-77
2022/08/13 14:17:20;;;;;;;2.37;1.90;;;;;;;;;;5093438;28;20469;-76
2022/08/13 14:19:47;;;;;;;1.37;1.30;;;;;;;;;;5093370;28;20969;-77
2022/08/13 14:22:14;;;;;;;1.60;1.50;;;;;;;;;;5093474;28;20513;-77
2022/08/13 14:24:42;;;;;;;1.60;1.50;;;;;;;;;;5093114;28;20547;-77
2022/08/13 14:27:11;;;;;;;2.10;1.80;;;;;;;;;;5093162;28;20483;-77
2022/08/13 14:29:38;;;;;;;1.40;1.30;;;;;;;;;;5093243;28;20443;-77
2022/08/13 14:32:06;;;;;;;1.47;1.37;;;;;;;;;;5092910;28;20528;-76
2022/08/13 14:34:35;;;;;;;1.50;1.50;;;;;;;;;;5092278;28;20447;-77
2022/08/13 14:37:02;;;;;;;1.60;1.60;;;;;;;;;;5092685;28;21074;-77
2022/08/13 14:39:29;;;;;;;1.30;1.30;;;;;;;;;;5093151;28;20547;-77
2022/08/13 14:41:57;;;;;;;1.63;1.50;;;;;;;;;;5092706;28;20440;-77
2022/08/13 14:44:25;;;;;;;1.57;1.47;;;;;;;;;;5092829;28;20860;-77
2022/08/13 14:46:52;;;;;;;1.70;1.70;;;;;;;;;;5093049;28;20532;-78
2022/08/13 14:49:20;;;;;;;1.53;1.53;;;;;;;;;;5093076;28;20596;-77
2022/08/13 14:51:49;;;;;;;1.70;1.60;;;;;;;;;;5093066;28;20486;-78
2022/08/13 14:54:16;;;;;;;1.70;1.60;;;;;;;;;;5092391;28;20547;-79
2022/08/13 14:56:43;;;;;;;2.00;1.67;;;;;;;;;;5093100;28;20837;-78
2022/08/13 14:59:10;;;;;;;1.20;1.20;;;;;;;;;;5093286;28;20470;-79
2022/08/13 15:01:39;;;;;;;2.57;1.60;;;;;;;;;;5093193;28;20451;-77
2022/08/13 15:04:06;;;;;;;1.50;1.43;;;;;;;;;;5092436;28;20436;-78
2022/08/13 15:06:33;;;;;;;1.57;1.50;;;;;;;;;;5092768;28;20479;-77
2022/08/13 15:09:01;;;;;;;1.63;1.53;;;;;;;;;;5092649;28;20444;-78
2022/08/13 15:11:28;;;;;;;3.90;1.57;;;;;;;;;;5089797;28;20823;-78
2022/08/13 15:13:55;;;;;;;1.80;1.70;;;;;;;;;;5089099;28;20436;-77
2022/08/13 15:16:24;;;;;;;2.33;1.40;;;;;;;;;;5093037;28;20524;-77